sensor_id;sensor_type;location;lat;lon;timestamp;pressure;altitude;pressure_sealevel;temperature;humidity
62708;BME280;48769;51.624;5.886;2023-05-03T00:02:04;102711.81;;;7.45;79.01
62708;BME280;48769;51.624;5.886;2023-05-03T00:04:30;102717.06;;;7.45;79.22
62708;BME280;48769;51.624;5.886;2023-05-03T00:06:58;102711.91;;;7.33;79.40
62708;BME280;48769;51.624;5.886;2023-05-03T00:09:24;102713.72;;;7.24;79.90
62708;BME280;48769;51.624;5.886;2023-05-03T00:11:49;102711.97;;;7.28;79.66
62708;BME280;48769;51.624;5.886;2023-05-03T00:14:14;102717.16;;;7.33;79.86
62708;BME280;48769;51.624;5.886;2023-05-03T00:16:40;102703.13;;;7.34;79.87
62708;BME280;48769;51.624;5.886;2023-05-03T00:19:05;102704.06;;;7.28;79.98
62708;BME280;48769;51.624;5.886;2023-05-03T00:21:31;102705.78;;;7.31;79.92
62708;BME280;48769;51.624;5.886;2023-05-03T00:23:56;102702.28;;;7.32;79.99
62708;BME280;48769;51.624;5.886;2023-05-03T00:26:21;102708.44;;;7.24;79.93
62708;BME280;48769;51.624;5.886;2023-05-03T00:28:46;102703.28;;;7.14;80.97
62708;BME280;48769;51.624;5.886;2023-05-03T00:31:12;102703.31;;;7.12;80.67
62708;BME280;48769;51.624;5.886;2023-05-03T00:33:37;102703.34;;;7.09;81.03
62708;BME280;48769;51.624;5.886;2023-05-03T00:36:09;102689.34;;;7.04;81.25
62708;BME280;48769;51.624;5.886;2023-05-03T00:38:36;102698.13;;;7.00;81.76
62708;BME280;48769;51.624;5.886;2023-05-03T00:41:02;102700.78;;;6.97;81.97
62708;BME280;48769;51.624;5.886;2023-05-03T00:43:28;102694.66;;;6.92;82.07
62708;BME280;48769;51.624;5.886;2023-05-03T00:45:53;102703.44;;;6.91;82.43
62708;BME280;48769;51.624;5.886;2023-05-03T00:48:19;102702.59;;;6.87;82.70
62708;BME280;48769;51.624;5.886;2023-05-03T00:50:46;102710.53;;;6.83;83.56
62708;BME280;48769;51.624;5.886;2023-05-03T00:53:11;102698.22;;;6.85;83.24
62708;BME280;48769;51.624;5.886;2023-05-03T00:55:37;102703.50;;;6.83;83.33
62708;BME280;48769;51.624;5.886;2023-05-03T00:58:03;102706.97;;;6.87;83.38
62708;BME280;48769;51.624;5.886;2023-05-03T01:00:28;102706.09;;;6.92;83.28
62708;BME280;48769;51.624;5.886;2023-05-03T01:02:54;102710.41;;;6.95;82.97
62708;BME280;48769;51.624;5.886;2023-05-03T01:05:21;102709.56;;;6.91;84.15
62708;BME280;48769;51.624;5.886;2023-05-03T01:07:55;102698.19;;;6.94;83.36
62708;BME280;48769;51.624;5.886;2023-05-03T01:10:45;102704.28;;;6.94;83.97
62708;BME280;48769;51.624;5.886;2023-05-03T01:15:58;102706.97;;;6.90;84.74
62708;BME280;48769;51.624;5.886;2023-05-03T01:18:29;102713.09;;;6.89;84.73
62708;BME280;48769;51.624;5.886;2023-05-03T01:20:59;102712.22;;;6.85;85.12
62708;BME280;48769;51.624;5.886;2023-05-03T01:23:42;102707.00;;;6.84;84.43
62708;BME280;48769;51.624;5.886;2023-05-03T01:26:23;102698.25;;;6.82;84.33
62708;BME280;48769;51.624;5.886;2023-05-03T01:28:49;102703.50;;;6.78;85.17
62708;BME280;48769;51.624;5.886;2023-05-03T01:31:20;102701.78;;;6.74;85.10
62708;BME280;48769;51.624;5.886;2023-05-03T01:33:54;102701.78;;;6.74;85.10
62708;BME280;48769;51.624;5.886;2023-05-03T01:36:28;102709.72;;;6.68;84.71
62708;BME280;48769;51.624;5.886;2023-05-03T01:38:57;102710.63;;;6.61;85.08
62708;BME280;48769;51.624;5.886;2023-05-03T01:41:23;102724.66;;;6.60;85.11
62708;BME280;48769;51.624;5.886;2023-05-03T01:43:50;102722.00;;;6.62;85.42
62708;BME280;48769;51.624;5.886;2023-05-03T01:46:16;102728.16;;;6.50;85.51
62708;BME280;48769;51.624;5.886;2023-05-03T01:48:41;102729.97;;;6.42;85.77
62708;BME280;48769;51.624;5.886;2023-05-03T01:51:06;102724.75;;;6.29;86.33
62708;BME280;48769;51.624;5.886;2023-05-03T01:53:32;102716.91;;;6.25;86.31
62708;BME280;48769;51.624;5.886;2023-05-03T01:55:57;102723.03;;;6.19;87.09
62708;BME280;48769;51.624;5.886;2023-05-03T01:58:22;102716.94;;;6.14;87.36
62708;BME280;48769;51.624;5.886;2023-05-03T02:00:48;102718.72;;;6.09;87.56
62708;BME280;48769;51.624;5.886;2023-05-03T02:03:13;102719.56;;;6.09;87.23
62708;BME280;48769;51.624;5.886;2023-05-03T02:05:38;102713.47;;;6.09;87.16
62708;BME280;48769;51.624;5.886;2023-05-03T02:08:04;102712.59;;;6.01;87.60
62708;BME280;48769;51.624;5.886;2023-05-03T02:10:29;102716.97;;;6.06;87.41
62708;BME280;48769;51.624;5.886;2023-05-03T02:12:54;102724.84;;;6.05;87.79
62708;BME280;48769;51.624;5.886;2023-05-03T02:15:20;102717.84;;;6.12;87.13
62708;BME280;48769;51.624;5.886;2023-05-03T02:17:46;102716.94;;;6.14;87.25
62708;BME280;48769;51.624;5.886;2023-05-03T02:20:13;102712.56;;;6.16;87.22
62708;BME280;48769;51.624;5.886;2023-05-03T02:22:38;102729.16;;;6.17;86.94
62708;BME280;48769;51.624;5.886;2023-05-03T02:25:04;102725.69;;;6.18;86.96
62708;BME280;48769;51.624;5.886;2023-05-03T02:27:30;102725.69;;;6.15;86.71
62708;BME280;48769;51.624;5.886;2023-05-03T02:29:56;102733.56;;;6.12;86.53
62708;BME280;48769;51.624;5.886;2023-05-03T02:32:21;102728.31;;;6.04;87.65
62708;BME280;48769;51.624;5.886;2023-05-03T02:34:48;102717.84;;;6.04;88.07
62708;BME280;48769;51.624;5.886;2023-05-03T02:37:14;102727.47;;;6.03;88.23
62708;BME280;48769;51.624;5.886;2023-05-03T02:39:39;102718.75;;;5.98;88.06
62708;BME280;48769;51.624;5.886;2023-05-03T02:42:05;102723.09;;;6.01;88.03
62708;BME280;48769;51.624;5.886;2023-05-03T02:44:31;102714.38;;;6.02;87.88
62708;BME280;48769;51.624;5.886;2023-05-03T02:46:57;102709.13;;;6.02;87.84
62708;BME280;48769;51.624;5.886;2023-05-03T02:49:22;102703.88;;;6.02;87.96
62708;BME280;48769;51.624;5.886;2023-05-03T02:51:47;102697.75;;;5.95;88.43
62708;BME280;48769;51.624;5.886;2023-05-03T02:54:13;102706.50;;;5.93;88.65
62708;BME280;48769;51.624;5.886;2023-05-03T02:56:38;102685.47;;;5.91;88.58
62708;BME280;48769;51.624;5.886;2023-05-03T02:59:04;102692.47;;;5.88;88.84
62708;BME280;48769;51.624;5.886;2023-05-03T03:01:29;102690.75;;;5.80;89.29
62708;BME280;48769;51.624;5.886;2023-05-03T03:03:55;102683.75;;;5.81;89.02
62708;BME280;48769;51.624;5.886;2023-05-03T03:06:20;102668.91;;;5.83;88.84
62708;BME280;48769;51.624;5.886;2023-05-03T03:08:46;102674.19;;;5.75;89.38
62708;BME280;48769;51.624;5.886;2023-05-03T03:11:11;102668.94;;;5.72;89.74
62708;BME280;48769;51.624;5.886;2023-05-03T03:13:36;102668.06;;;5.73;89.71
62708;BME280;48769;51.624;5.886;2023-05-03T03:16:07;102664.56;;;5.73;89.98
62708;BME280;48769;51.624;5.886;2023-05-03T03:18:33;102658.44;;;5.65;90.33
62708;BME280;48769;51.624;5.886;2023-05-03T03:21:00;102662.81;;;5.61;90.70
62708;BME280;48769;51.624;5.886;2023-05-03T03:23:25;102661.94;;;5.62;91.06
62708;BME280;48769;51.624;5.886;2023-05-03T03:25:51;102650.63;;;5.48;92.02
62708;BME280;48769;51.624;5.886;2023-05-03T03:28:16;102654.13;;;5.41;93.29
62708;BME280;48769;51.624;5.886;2023-05-03T03:30:42;102662.84;;;5.41;93.33
62708;BME280;48769;51.624;5.886;2023-05-03T03:33:08;102668.09;;;5.44;93.13
62708;BME280;48769;51.624;5.886;2023-05-03T03:35:33;102665.47;;;5.49;92.92
62708;BME280;48769;51.624;5.886;2023-05-03T03:37:58;102681.19;;;5.55;92.34
62708;BME280;48769;51.624;5.886;2023-05-03T03:40:24;102684.69;;;5.54;91.96
62708;BME280;48769;51.624;5.886;2023-05-03T03:42:49;102684.69;;;5.54;91.72
62708;BME280;48769;51.624;5.886;2023-05-03T03:45:14;102681.19;;;5.55;91.53
62708;BME280;48769;51.624;5.886;2023-05-03T03:47:40;102691.66;;;5.52;90.87
62708;BME280;48769;51.624;5.886;2023-05-03T03:50:05;102686.44;;;5.46;91.80
62708;BME280;48769;51.624;5.886;2023-05-03T03:52:31;102689.94;;;5.42;91.57
62708;BME280;48769;51.624;5.886;2023-05-03T03:54:56;102684.72;;;5.43;91.36
62708;BME280;48769;51.624;5.886;2023-05-03T03:57:22;102689.06;;;5.44;91.36
62708;BME280;48769;51.624;5.886;2023-05-03T03:59:49;102677.72;;;5.37;92.21
62708;BME280;48769;51.624;5.886;2023-05-03T04:02:15;102682.09;;;5.40;92.17
62708;BME280;48769;51.624;5.886;2023-05-03T04:04:40;102672.47;;;5.41;91.42
62708;BME280;48769;51.624;5.886;2023-05-03T04:07:07;102682.09;;;5.40;91.47
62708;BME280;48769;51.624;5.886;2023-05-03T04:09:32;102685.56;;;5.37;92.26
62708;BME280;48769;51.624;5.886;2023-05-03T04:11:58;102681.19;;;5.41;92.09
62708;BME280;48769;51.624;5.886;2023-05-03T04:14:24;102684.69;;;5.45;92.05
62708;BME280;48769;51.624;5.886;2023-05-03T04:16:49;102677.72;;;5.47;91.49
62708;BME280;48769;51.624;5.886;2023-05-03T04:19:15;102679.44;;;5.48;91.72
62708;BME280;48769;51.624;5.886;2023-05-03T04:21:40;102694.31;;;5.47;91.70
62708;BME280;48769;51.624;5.886;2023-05-03T04:24:06;102692.56;;;5.48;91.48
62708;BME280;48769;51.624;5.886;2023-05-03T04:26:32;102699.53;;;5.43;92.32
62708;BME280;48769;51.624;5.886;2023-05-03T04:28:58;102698.69;;;5.34;93.11
62708;BME280;48769;51.624;5.886;2023-05-03T04:31:24;102694.31;;;5.33;92.97
62708;BME280;48769;51.624;5.886;2023-05-03T04:33:49;102701.28;;;5.36;93.04
62708;BME280;48769;51.624;5.886;2023-05-03T04:36:15;102708.28;;;5.38;92.57
62708;BME280;48769;51.624;5.886;2023-05-03T04:38:41;102713.53;;;5.48;92.24
62708;BME280;48769;51.624;5.886;2023-05-03T04:41:08;102720.53;;;5.50;92.16
62708;BME280;48769;51.624;5.886;2023-05-03T04:43:34;102710.91;;;5.37;93.20
62708;BME280;48769;51.624;5.886;2023-05-03T04:46:00;102707.41;;;5.26;93.91
62708;BME280;48769;51.624;5.886;2023-05-03T04:48:27;102713.53;;;5.17;95.03
62708;BME280;48769;51.624;5.886;2023-05-03T04:50:52;102716.16;;;5.23;94.53
62708;BME280;48769;51.624;5.886;2023-05-03T04:53:18;102714.41;;;5.18;95.46
62708;BME280;48769;51.624;5.886;2023-05-03T04:55:43;102717.00;;;5.13;96.31
62708;BME280;48769;51.624;5.886;2023-05-03T04:58:08;102724.84;;;5.10;96.55
62708;BME280;48769;51.624;5.886;2023-05-03T05:00:34;102727.47;;;5.13;97.09
62708;BME280;48769;51.624;5.886;2023-05-03T05:03:00;102733.59;;;5.12;96.89
62708;BME280;48769;51.624;5.886;2023-05-03T05:05:25;102737.09;;;5.12;97.76
62708;BME280;48769;51.624;5.886;2023-05-03T05:07:51;102743.19;;;5.13;97.74
62708;BME280;48769;51.624;5.886;2023-05-03T05:10:16;102736.19;;;5.06;99.35
62708;BME280;48769;51.624;5.886;2023-05-03T05:12:42;102748.44;;;5.14;98.78
62708;BME280;48769;51.624;5.886;2023-05-03T05:15:07;102742.34;;;5.22;98.55
62708;BME280;48769;51.624;5.886;2023-05-03T05:17:33;102751.09;;;5.28;98.67
62708;BME280;48769;51.624;5.886;2023-05-03T05:19:59;102751.09;;;5.41;98.39
62708;BME280;48769;51.624;5.886;2023-05-03T05:22:24;102758.94;;;5.71;97.75
62708;BME280;48769;51.624;5.886;2023-05-03T05:24:50;102760.69;;;6.03;95.80
62708;BME280;48769;51.624;5.886;2023-05-03T05:27:15;102758.88;;;6.31;94.60
62708;BME280;48769;51.624;5.886;2023-05-03T05:29:41;102763.09;;;6.69;92.97
62708;BME280;48769;51.624;5.886;2023-05-03T05:32:06;102766.19;;;7.40;89.98
62708;BME280;48769;51.624;5.886;2023-05-03T05:34:31;102762.91;;;8.13;86.94
62708;BME280;48769;51.624;5.886;2023-05-03T05:36:57;102753.66;;;8.54;83.12
62708;BME280;48769;51.624;5.886;2023-05-03T05:39:22;102750.50;;;8.96;81.24
62708;BME280;48769;51.624;5.886;2023-05-03T05:41:48;102753.69;;;9.16;79.65
62708;BME280;48769;51.624;5.886;2023-05-03T05:44:13;102754.91;;;9.52;78.10
62708;BME280;48769;51.624;5.886;2023-05-03T05:46:38;102746.72;;;10.16;75.65
62708;BME280;48769;51.624;5.886;2023-05-03T05:49:04;102749.50;;;10.55;73.96
62708;BME280;48769;51.624;5.886;2023-05-03T05:51:29;102748.75;;;10.88;72.47
62708;BME280;48769;51.624;5.886;2023-05-03T05:53:55;102748.81;;;11.24;69.70
62708;BME280;48769;51.624;5.886;2023-05-03T05:56:21;102749.81;;;11.20;68.07
62708;BME280;48769;51.624;5.886;2023-05-03T05:58:46;102756.06;;;10.77;70.53
62708;BME280;48769;51.624;5.886;2023-05-03T06:01:11;102753.03;;;10.94;70.26
62708;BME280;48769;51.624;5.886;2023-05-03T06:03:37;102756.44;;;10.59;71.16
62708;BME280;48769;51.624;5.886;2023-05-03T06:06:02;102755.09;;;10.39;71.03
62708;BME280;48769;51.624;5.886;2023-05-03T06:08:28;102746.88;;;10.93;69.92
62708;BME280;48769;51.624;5.886;2023-05-03T06:10:53;102736.44;;;10.87;69.30
62708;BME280;48769;51.624;5.886;2023-05-03T06:13:18;102743.72;;;10.36;70.60
62708;BME280;48769;51.624;5.886;2023-05-03T06:15:44;102737.69;;;10.29;71.80
62708;BME280;48769;51.624;5.886;2023-05-03T06:18:10;102739.66;;;10.18;72.37
62708;BME280;48769;51.624;5.886;2023-05-03T06:20:35;102744.84;;;9.74;72.86
62708;BME280;48769;51.624;5.886;2023-05-03T06:23:00;102751.88;;;9.75;73.63
62708;BME280;48769;51.624;5.886;2023-05-03T06:25:26;102741.13;;;9.86;72.61
62708;BME280;48769;51.624;5.886;2023-05-03T06:27:51;102747.19;;;9.91;73.29
62708;BME280;48769;51.624;5.886;2023-05-03T06:30:16;102754.41;;;10.73;72.67
62708;BME280;48769;51.624;5.886;2023-05-03T06:32:42;102740.47;;;11.04;67.97
62708;BME280;48769;51.624;5.886;2023-05-03T06:35:08;102739.78;;;11.68;67.64
62708;BME280;48769;51.624;5.886;2023-05-03T06:37:34;102735.31;;;11.70;65.92
62708;BME280;48769;51.624;5.886;2023-05-03T06:40:00;102734.94;;;11.50;66.77
62708;BME280;48769;51.624;5.886;2023-05-03T06:42:25;102740.56;;;11.00;68.12
62708;BME280;48769;51.624;5.886;2023-05-03T06:44:51;102735.22;;;10.63;69.59
62708;BME280;48769;51.624;5.886;2023-05-03T06:47:17;102735.84;;;10.34;70.49
62708;BME280;48769;51.624;5.886;2023-05-03T06:49:44;102742.47;;;10.53;70.57
62708;BME280;48769;51.624;5.886;2023-05-03T06:52:10;102741.25;;;10.28;70.57
62708;BME280;48769;51.624;5.886;2023-05-03T06:54:35;102736.88;;;10.24;71.42
62708;BME280;48769;51.624;5.886;2023-05-03T06:57:00;102732.66;;;10.15;72.54
62708;BME280;48769;51.624;5.886;2023-05-03T06:59:26;102744.88;;;10.64;71.97
62708;BME280;48769;51.624;5.886;2023-05-03T07:01:52;102730.69;;;11.09;70.10
62708;BME280;48769;51.624;5.886;2023-05-03T07:04:17;102724.50;;;11.80;67.53
62708;BME280;48769;51.624;5.886;2023-05-03T07:06:43;102715.13;;;11.66;67.56
62708;BME280;48769;51.624;5.886;2023-05-03T07:09:08;102715.66;;;11.79;66.85
62708;BME280;48769;51.624;5.886;2023-05-03T07:11:34;102713.50;;;11.95;66.46
62708;BME280;48769;51.624;5.886;2023-05-03T07:14:02;102718.09;;;11.18;68.67
62708;BME280;48769;51.624;5.886;2023-05-03T07:16:27;102709.63;;;11.40;68.42
62708;BME280;48769;51.624;5.886;2023-05-03T07:18:53;102700.47;;;12.50;64.99
62708;BME280;48769;51.624;5.886;2023-05-03T07:21:18;102711.00;;;12.81;63.40
62708;BME280;48769;51.624;5.886;2023-05-03T07:23:44;102690.66;;;12.81;62.46
62708;BME280;48769;51.624;5.886;2023-05-03T07:26:09;102705.84;;;13.59;61.96
62708;BME280;48769;51.624;5.886;2023-05-03T07:28:34;102695.72;;;13.94;60.44
62708;BME280;48769;51.624;5.886;2023-05-03T07:31:01;102700.44;;;14.59;57.42
62708;BME280;48769;51.624;5.886;2023-05-03T07:33:27;102685.88;;;15.95;54.01
62708;BME280;48769;51.624;5.886;2023-05-03T07:35:52;102678.00;;;16.69;51.52
62708;BME280;48769;51.624;5.886;2023-05-03T07:38:18;102677.13;;;17.24;50.21
62708;BME280;48769;51.624;5.886;2023-05-03T07:40:43;102679.09;;;17.03;48.62
62708;BME280;48769;51.624;5.886;2023-05-03T07:43:09;102660.56;;;16.43;47.87
62708;BME280;48769;51.624;5.886;2023-05-03T07:45:35;102673.22;;;16.00;49.16
62708;BME280;48769;51.624;5.886;2023-05-03T07:48:00;102681.78;;;15.88;50.41
62708;BME280;48769;51.624;5.886;2023-05-03T07:50:25;102681.66;;;15.71;50.32
62708;BME280;48769;51.624;5.886;2023-05-03T07:52:51;102686.66;;;15.56;51.79
62708;BME280;48769;51.624;5.886;2023-05-03T07:55:19;102682.06;;;15.39;52.27
62708;BME280;48769;51.624;5.886;2023-05-03T07:57:45;102679.28;;;15.63;52.54
62708;BME280;48769;51.624;5.886;2023-05-03T08:00:11;102672.69;;;15.31;51.94
62708;BME280;48769;51.624;5.886;2023-05-03T08:02:37;102678.91;;;15.09;52.87
62708;BME280;48769;51.624;5.886;2023-05-03T08:05:03;102657.38;;;15.97;50.93
62708;BME280;48769;51.624;5.886;2023-05-03T08:07:31;102642.66;;;16.83;47.28
62708;BME280;48769;51.624;5.886;2023-05-03T08:09:57;102637.91;;;16.71;46.49
62708;BME280;48769;51.624;5.886;2023-05-03T08:12:26;102633.69;;;16.10;47.19
62708;BME280;48769;51.624;5.886;2023-05-03T08:14:53;102639.25;;;16.05;47.30
62708;BME280;48769;51.624;5.886;2023-05-03T08:17:18;102647.53;;;15.38;48.71
62708;BME280;48769;51.624;5.886;2023-05-03T08:19:45;102641.94;;;15.44;48.54
62708;BME280;48769;51.624;5.886;2023-05-03T08:22:11;102633.13;;;15.62;48.20
62708;BME280;48769;51.624;5.886;2023-05-03T08:24:37;102637.53;;;15.63;48.80
62708;BME280;48769;51.624;5.886;2023-05-03T08:27:03;102630.75;;;15.77;49.42
62708;BME280;48769;51.624;5.886;2023-05-03T08:29:30;102636.06;;;15.97;49.19
62708;BME280;48769;51.624;5.886;2023-05-03T08:31:56;102627.41;;;16.30;48.11
62708;BME280;48769;51.624;5.886;2023-05-03T08:34:22;102630.34;;;16.05;46.99
62708;BME280;48769;51.624;5.886;2023-05-03T08:36:47;102632.75;;;15.51;47.29
62708;BME280;48769;51.624;5.886;2023-05-03T08:39:13;102644.06;;;15.15;48.88
62708;BME280;48769;51.624;5.886;2023-05-03T08:41:39;102635.84;;;14.78;47.66
62708;BME280;48769;51.624;5.886;2023-05-03T08:44:06;102636.31;;;15.09;49.00
62708;BME280;48769;51.624;5.886;2023-05-03T08:46:32;102631.00;;;15.09;48.18
62708;BME280;48769;51.624;5.886;2023-05-03T08:49:01;102631.25;;;15.03;49.38
62708;BME280;48769;51.624;5.886;2023-05-03T08:51:26;102638.28;;;15.04;48.89
62708;BME280;48769;51.624;5.886;2023-05-03T08:53:52;102640.16;;;15.02;48.89
62708;BME280;48769;51.624;5.886;2023-05-03T08:56:39;102623.59;;;16.35;45.54
62708;BME280;48769;51.624;5.886;2023-05-03T08:59:05;102619.25;;;16.71;44.18
62708;BME280;48769;51.624;5.886;2023-05-03T09:01:38;102624.59;;;16.14;44.73
62708;BME280;48769;51.624;5.886;2023-05-03T09:04:04;102611.28;;;16.33;44.73
62708;BME280;48769;51.624;5.886;2023-05-03T09:06:30;102605.81;;;16.72;44.98
62708;BME280;48769;51.624;5.886;2023-05-03T09:09:00;102601.88;;;16.43;45.20
62708;BME280;48769;51.624;5.886;2023-05-03T09:11:30;102607.91;;;15.30;46.21
62708;BME280;48769;51.624;5.886;2023-05-03T09:14:13;102606.22;;;15.07;47.24
62708;BME280;48769;51.624;5.886;2023-05-03T09:16:40;102609.94;;;14.83;47.87
62708;BME280;48769;51.624;5.886;2023-05-03T09:19:07;102608.53;;;14.94;49.22
62708;BME280;48769;51.624;5.886;2023-05-03T09:21:34;102613.38;;;14.85;47.48
62708;BME280;48769;51.624;5.886;2023-05-03T09:24:00;102611.28;;;14.93;47.47
62708;BME280;48769;51.624;5.886;2023-05-03T09:26:29;102620.84;;;14.97;46.91
62708;BME280;48769;51.624;5.886;2023-05-03T09:28:57;102622.16;;;15.09;48.54
62708;BME280;48769;51.624;5.886;2023-05-03T09:31:22;102635.72;;;15.43;47.99
62708;BME280;48769;51.624;5.886;2023-05-03T09:33:48;102626.47;;;15.52;46.24
62708;BME280;48769;51.624;5.886;2023-05-03T09:36:13;102639.31;;;15.02;47.40
62708;BME280;48769;51.624;5.886;2023-05-03T09:38:39;102638.69;;;14.95;48.54
62708;BME280;48769;51.624;5.886;2023-05-03T09:41:04;102634.53;;;15.30;46.53
62708;BME280;48769;51.624;5.886;2023-05-03T09:43:33;102628.25;;;15.11;47.25
62708;BME280;48769;51.624;5.886;2023-05-03T09:46:11;102626.53;;;15.10;47.51
62708;BME280;48769;51.624;5.886;2023-05-03T09:48:37;102625.56;;;15.74;48.55
62708;BME280;48769;51.624;5.886;2023-05-03T09:51:04;102627.03;;;15.60;48.07
62708;BME280;48769;51.624;5.886;2023-05-03T09:53:31;102624.13;;;15.85;48.29
62708;BME280;48769;51.624;5.886;2023-05-03T09:55:58;102610.00;;;15.44;46.62
62708;BME280;48769;51.624;5.886;2023-05-03T09:58:24;102612.16;;;15.55;48.19
62708;BME280;48769;51.624;5.886;2023-05-03T10:00:50;102618.22;;;15.58;47.79
62708;BME280;48769;51.624;5.886;2023-05-03T10:03:27;102610.38;;;15.76;46.89
62708;BME280;48769;51.624;5.886;2023-05-03T10:05:57;102612.84;;;15.60;47.93
62708;BME280;48769;51.624;5.886;2023-05-03T10:08:32;102613.47;;;15.65;48.82
62708;BME280;48769;51.624;5.886;2023-05-03T10:11:01;102598.63;;;15.59;48.12
62708;BME280;48769;51.624;5.886;2023-05-03T10:13:28;102601.88;;;15.47;47.65
62708;BME280;48769;51.624;5.886;2023-05-03T10:16:12;102609.72;;;15.50;46.90
62708;BME280;48769;51.624;5.886;2023-05-03T10:18:53;102615.72;;;15.35;46.95
62708;BME280;48769;51.624;5.886;2023-05-03T10:21:28;102605.72;;;15.60;48.68
62708;BME280;48769;51.624;5.886;2023-05-03T10:26:33;102596.88;;;15.99;47.76
62708;BME280;48769;51.624;5.886;2023-05-03T10:28:58;102591.59;;;16.17;46.67
62708;BME280;48769;51.624;5.886;2023-05-03T10:31:43;102592.41;;;16.19;46.97
62708;BME280;48769;51.624;5.886;2023-05-03T10:34:22;102591.72;;;15.55;46.21
62708;BME280;48769;51.624;5.886;2023-05-03T10:36:48;102604.56;;;15.66;47.87
62708;BME280;48769;51.624;5.886;2023-05-03T10:39:18;102603.84;;;16.21;48.00
62708;BME280;48769;51.624;5.886;2023-05-03T10:41:44;102596.28;;;16.11;45.86
62708;BME280;48769;51.624;5.886;2023-05-03T10:44:26;102592.69;;;16.12;45.55
62708;BME280;48769;51.624;5.886;2023-05-03T10:46:52;102589.34;;;16.45;45.68
62708;BME280;48769;51.624;5.886;2023-05-03T10:49:22;102590.06;;;16.49;45.58
62708;BME280;48769;51.624;5.886;2023-05-03T10:51:48;102594.31;;;16.15;46.40
62708;BME280;48769;51.624;5.886;2023-05-03T10:54:14;102594.69;;;15.88;47.32
62708;BME280;48769;51.624;5.886;2023-05-03T10:56:53;102590.59;;;16.00;46.98
62708;BME280;48769;51.624;5.886;2023-05-03T10:59:19;102593.25;;;16.38;48.03
62708;BME280;48769;51.624;5.886;2023-05-03T11:01:48;102591.38;;;16.40;46.99
62708;BME280;48769;51.624;5.886;2023-05-03T11:04:32;102592.22;;;16.41;46.54
62708;BME280;48769;51.624;5.886;2023-05-03T11:07:00;102590.22;;;16.27;46.00
62708;BME280;48769;51.624;5.886;2023-05-03T11:09:31;102586.03;;;16.40;46.48
62708;BME280;48769;51.624;5.886;2023-05-03T11:11:56;102578.31;;;16.70;46.12
62708;BME280;48769;51.624;5.886;2023-05-03T11:14:22;102586.41;;;16.69;48.08
62708;BME280;48769;51.624;5.886;2023-05-03T11:16:48;102579.16;;;16.53;45.92
62708;BME280;48769;51.624;5.886;2023-05-03T11:19:15;102581.31;;;16.09;46.50
62708;BME280;48769;51.624;5.886;2023-05-03T11:21:41;102581.50;;;16.04;46.87
62708;BME280;48769;51.624;5.886;2023-05-03T11:24:08;102580.16;;;15.96;46.90
62708;BME280;48769;51.624;5.886;2023-05-03T11:26:37;102570.91;;;15.84;47.89
62708;BME280;48769;51.624;5.886;2023-05-03T11:29:03;102573.50;;;16.23;48.18
62708;BME280;48769;51.624;5.886;2023-05-03T11:31:29;102561.50;;;16.87;48.29
62708;BME280;48769;51.624;5.886;2023-05-03T11:33:56;102562.56;;;16.66;46.70
62708;BME280;48769;51.624;5.886;2023-05-03T11:36:24;102556.31;;;17.01;46.77
62708;BME280;48769;51.624;5.886;2023-05-03T11:38:52;102555.09;;;16.72;45.05
62708;BME280;48769;51.624;5.886;2023-05-03T11:41:17;102552.97;;;16.62;45.41
62708;BME280;48769;51.624;5.886;2023-05-03T11:43:43;102568.69;;;16.68;45.89
62708;BME280;48769;51.624;5.886;2023-05-03T11:46:10;102552.94;;;17.15;44.77
62708;BME280;48769;51.624;5.886;2023-05-03T11:48:36;102543.06;;;17.50;44.41
62708;BME280;48769;51.624;5.886;2023-05-03T11:51:07;102546.72;;;16.80;44.35
62708;BME280;48769;51.624;5.886;2023-05-03T11:53:36;102550.16;;;16.65;44.83
62708;BME280;48769;51.624;5.886;2023-05-03T11:56:06;102539.94;;;16.73;43.58
62708;BME280;48769;51.624;5.886;2023-05-03T11:58:32;102535.47;;;16.73;45.46
62708;BME280;48769;51.624;5.886;2023-05-03T12:00:58;102536.00;;;16.81;43.86
62708;BME280;48769;51.624;5.886;2023-05-03T12:03:25;102536.31;;;16.20;44.63
62708;BME280;48769;51.624;5.886;2023-05-03T12:05:51;102523.25;;;16.33;43.54
62708;BME280;48769;51.624;5.886;2023-05-03T12:08:18;102511.78;;;16.31;42.77
62708;BME280;48769;51.624;5.886;2023-05-03T12:10:45;102514.06;;;16.57;43.23
62708;BME280;48769;51.624;5.886;2023-05-03T12:13:11;102507.91;;;16.55;43.36
62708;BME280;48769;51.624;5.886;2023-05-03T12:15:38;102503.69;;;16.51;41.78
62708;BME280;48769;51.624;5.886;2023-05-03T12:18:10;102512.50;;;16.71;44.17
62708;BME280;48769;51.624;5.886;2023-05-03T12:20:37;102502.59;;;16.55;43.25
62708;BME280;48769;51.624;5.886;2023-05-03T12:23:06;102501.47;;;16.59;42.98
62708;BME280;48769;51.624;5.886;2023-05-03T12:25:32;102502.56;;;16.38;43.14
62708;BME280;48769;51.624;5.886;2023-05-03T12:28:00;102496.94;;;17.14;43.15
62708;BME280;48769;51.624;5.886;2023-05-03T12:30:27;102490.06;;;16.92;42.53
62708;BME280;48769;51.624;5.886;2023-05-03T12:32:53;102496.63;;;17.20;45.18
62708;BME280;48769;51.624;5.886;2023-05-03T12:35:20;102486.28;;;16.96;42.37
62708;BME280;48769;51.624;5.886;2023-05-03T12:37:46;102486.47;;;17.26;42.74
62708;BME280;48769;51.624;5.886;2023-05-03T12:40:12;102479.75;;;17.02;41.62
62708;BME280;48769;51.624;5.886;2023-05-03T12:42:38;102480.47;;;16.88;42.61
62708;BME280;48769;51.624;5.886;2023-05-03T12:45:05;102473.56;;;17.01;43.00
62708;BME280;48769;51.624;5.886;2023-05-03T12:47:30;102473.03;;;17.28;41.60
62708;BME280;48769;51.624;5.886;2023-05-03T12:49:56;102473.94;;;17.60;42.54
62708;BME280;48769;51.624;5.886;2023-05-03T12:52:21;102452.78;;;18.05;41.61
62708;BME280;48769;51.624;5.886;2023-05-03T12:54:47;102450.88;;;17.75;41.10
62708;BME280;48769;51.624;5.886;2023-05-03T12:57:13;102445.16;;;17.65;40.15
62708;BME280;48769;51.624;5.886;2023-05-03T12:59:39;102438.03;;;17.82;40.59